Heat Index SAI AWOS Graphical Display Untitled Document
Brandywine Airport
290
20:34
17/06/24
08
N/A
240V300
29.86
2300
466
84(F), 29(C)
56(F), 13(C)
83 F
37%
SCT065
10
N/A
N/A
N/A
20:34 zulu Wind 290 at 08 Knots, Altimeter 29.86
METAR KOQN 242034Z AUTO 28008KT 240V300 10SM SCT065 29/13 A2986 A02
METAR:
FAA Disclaimer--Advisory Use ONLY, not for flight info-- 3/09/2009: Brandywine Airport , PA now online 24/7. Pilots with SMARTPHONES can view the airport on their cellphones at http://www.saiawos3.com/OQN
INFO:
Wind Direction:
Wind Speed:
Wind Gust:
Wind Variable:
Altimeter:
Dens Alt:
Elev:
Temp:
Dwpt:
Heat Index
Rel Humidity:
Ceiling:
Visibility:
Prsnt Wea:
PCPN:
Remarks:
How to read the WebPage